createdAt,value
2023-04-18T00:01:13.404Z,8.63
2023-04-18T00:04:15.465Z,8.38
2023-04-18T00:07:21.200Z,8.05
2023-04-18T00:10:23.572Z,7.85
2023-04-18T00:13:25.394Z,8.20
2023-04-18T00:16:31.856Z,8.00
2023-04-18T00:19:33.929Z,8.57
2023-04-18T00:22:37.709Z,7.78
2023-04-18T00:25:41.464Z,7.20
2023-04-18T00:28:43.244Z,7.90
2023-04-18T00:31:45.256Z,8.32
2023-04-18T00:34:47.307Z,8.63
2023-04-18T00:37:50.677Z,8.15
2023-04-18T00:40:52.439Z,8.68
2023-04-18T00:43:54.625Z,7.95
2023-04-18T00:46:56.332Z,8.32
2023-04-18T00:49:59.093Z,7.85
2023-04-18T00:53:03.501Z,7.88
2023-04-18T00:56:06.444Z,8.05
2023-04-18T00:59:09.974Z,7.40
2023-04-18T01:02:12.811Z,8.18
2023-04-18T01:05:14.718Z,9.23
2023-04-18T01:08:19.503Z,13.07
2023-04-18T01:11:21.581Z,12.52
2023-04-18T01:14:23.367Z,13.38
2023-04-18T01:17:25.227Z,15.98
2023-04-18T01:20:29.481Z,16.17
2023-04-18T01:23:32.696Z,17.42
2023-04-18T01:26:35.850Z,17.08
2023-04-18T01:29:38.962Z,17.35
2023-04-18T01:32:41.168Z,17.83
2023-04-18T01:35:42.921Z,17.25
2023-04-18T01:38:44.806Z,17.42
2023-04-18T01:41:48.183Z,17.60
2023-04-18T01:44:49.974Z,18.48
2023-04-18T01:47:52.119Z,17.77
2023-04-18T01:50:53.889Z,17.27
2023-04-18T01:53:55.654Z,17.27
2023-04-18T01:56:58.767Z,17.45
2023-04-18T02:00:00.936Z,18.42
2023-04-18T02:03:02.892Z,17.10
2023-04-18T02:06:05.704Z,17.13
2023-04-18T02:09:08.729Z,17.77
2023-04-18T02:12:12.632Z,17.40
2023-04-18T02:15:15.227Z,18.83
2023-04-18T02:18:17.726Z,18.27
2023-04-18T02:21:19.887Z,18.58
2023-04-18T02:24:21.644Z,18.90
2023-04-18T02:27:24.914Z,18.95
2023-04-18T02:30:26.767Z,18.58
2023-04-18T02:33:28.624Z,18.40
2023-04-18T02:36:30.486Z,18.90
2023-04-18T02:39:33.599Z,18.75
2023-04-18T02:42:37.037Z,19.83
2023-04-18T02:45:39.073Z,19.48
2023-04-18T02:48:40.905Z,19.30
2023-04-18T02:51:42.948Z,19.80
2023-04-18T02:54:45.196Z,19.42
2023-04-18T02:57:48.498Z,19.23
2023-04-18T03:00:53.643Z,20.75
2023-04-18T03:03:55.755Z,19.92
2023-04-18T03:06:58.618Z,19.83
2023-04-18T03:10:00.672Z,19.15
2023-04-18T03:13:05.455Z,19.98
2023-04-18T03:16:10.548Z,20.50
2023-04-18T03:19:12.656Z,19.85
2023-04-18T03:22:16.354Z,20.63
2023-04-18T03:25:18.155Z,21.02
2023-04-18T03:28:21.369Z,21.67
2023-04-18T03:31:23.158Z,21.58
2023-04-18T03:34:25.202Z,21.60
2023-04-18T03:37:27.237Z,22.13
2023-04-18T03:40:29.470Z,22.02
2023-04-18T03:43:33.322Z,23.48
2023-04-18T03:46:35.570Z,23.17
2023-04-18T03:49:37.372Z,21.85
2023-04-18T03:52:40.215Z,22.90
2023-04-18T03:55:42.435Z,22.05
2023-04-18T03:58:45.926Z,24.35
2023-04-18T04:01:47.891Z,23.73
2023-04-18T04:04:49.749Z,24.38
2023-04-18T04:07:51.839Z,22.83
2023-04-18T04:10:53.863Z,24.33
2023-04-18T04:14:00.780Z,24.27
2023-04-18T04:17:02.717Z,23.23
2023-04-18T04:20:05.006Z,24.35
2023-04-18T04:23:06.794Z,23.67
2023-04-18T04:26:09.630Z,23.42
2023-04-18T04:29:12.937Z,24.40
2023-04-18T04:32:14.739Z,24.17
2023-04-18T04:35:16.798Z,23.67
2023-04-18T04:38:18.573Z,23.83
2023-04-18T04:41:21.660Z,23.80
2023-04-18T04:44:24.995Z,23.05
2023-04-18T04:47:26.822Z,22.55
2023-04-18T04:50:28.970Z,22.55
2023-04-18T04:53:30.932Z,21.33
2023-04-18T04:56:33.290Z,23.02
2023-04-18T04:59:36.910Z,20.80
2023-04-18T05:02:38.983Z,22.73
2023-04-18T05:05:41.106Z,22.05
2023-04-18T05:08:43.282Z,20.60
2023-04-18T05:11:44.999Z,21.52
2023-04-18T05:14:48.469Z,21.23
2023-04-18T05:17:51.044Z,20.10
2023-04-18T05:20:53.220Z,22.00
2023-04-18T05:23:55.076Z,21.15
2023-04-18T05:26:57.631Z,22.30
2023-04-18T05:30:02.696Z,20.90
2023-04-18T05:33:05.594Z,20.77
2023-04-18T05:36:07.802Z,22.30
2023-04-18T05:39:09.564Z,23.42
2023-04-18T05:42:12.866Z,20.63
2023-04-18T05:45:17.232Z,20.10
2023-04-18T05:48:20.625Z,22.40
2023-04-18T05:51:22.729Z,20.25
2023-04-18T05:54:24.569Z,20.85
2023-04-18T05:57:26.353Z,18.85
2023-04-18T06:00:30.465Z,20.65
2023-04-18T06:03:32.484Z,20.67
2023-04-18T06:06:35.242Z,19.75
2023-04-18T06:09:37.488Z,18.42
2023-04-18T06:12:39.341Z,18.52
2023-04-18T06:15:43.968Z,18.50
2023-04-18T06:18:46.004Z,20.33
2023-04-18T06:21:48.880Z,20.08
2023-04-18T06:24:51.265Z,19.70
2023-04-18T06:27:53.514Z,17.98
2023-04-18T06:30:56.689Z,19.25
2023-04-18T06:33:58.458Z,19.05
2023-04-18T06:37:00.549Z,19.80
2023-04-18T06:40:02.300Z,18.70
2023-04-18T06:43:04.270Z,18.02
2023-04-18T06:46:08.247Z,17.65
2023-04-18T06:49:10.297Z,17.52
2023-04-18T06:52:12.382Z,17.98
2023-04-18T06:55:14.490Z,17.40
2023-04-18T06:58:16.651Z,16.45
2023-04-18T07:01:19.979Z,15.40
2023-04-18T07:04:22.262Z,13.85
2023-04-18T07:07:24.412Z,15.63
2023-04-18T07:10:26.266Z,13.88
2023-04-18T07:13:28.124Z,12.38
2023-04-18T07:16:31.424Z,12.48
2023-04-18T07:19:33.278Z,22.00
2023-04-18T07:22:37.851Z,25.77
2023-04-18T07:25:40.552Z,12.63
2023-04-18T07:28:42.376Z,12.95
2023-04-18T07:31:45.627Z,12.75
2023-04-18T07:34:47.347Z,12.38
2023-04-18T07:37:51.310Z,13.00
2023-04-18T07:40:57.155Z,12.02
2023-04-18T07:43:59.172Z,13.18
2023-04-18T07:47:02.978Z,16.90
2023-04-18T07:50:05.473Z,12.20
2023-04-18T07:53:08.320Z,12.27
2023-04-18T07:56:11.190Z,11.85
2023-04-18T07:59:13.557Z,11.60
2023-04-18T08:02:16.989Z,12.50
2023-04-18T08:05:20.425Z,11.65
2023-04-18T08:08:22.314Z,12.20
2023-04-18T08:11:24.158Z,11.57
2023-04-18T08:14:26.380Z,11.90
2023-04-18T08:17:29.585Z,11.60
2023-04-18T08:20:31.427Z,11.90
2023-04-18T08:23:33.479Z,12.23
2023-04-18T08:26:35.507Z,11.45
2023-04-18T08:29:37.254Z,11.77
2023-04-18T08:32:42.299Z,12.32
2023-04-18T08:35:44.345Z,11.68
2023-04-18T08:38:46.570Z,10.82
2023-04-18T08:41:57.175Z,10.55
2023-04-18T08:44:59.587Z,10.82
2023-04-18T08:48:02.929Z,11.43
2023-04-18T08:51:05.529Z,10.32
2023-04-18T08:54:09.174Z,10.10
2023-04-18T08:57:12.763Z,10.13
2023-04-18T09:00:17.157Z,11.13
